Time;durP1;ratioP1;P1;durP2;ratioP2;P2;SDS_P1;SDS_P2;PMS_P1;PMS_P2;Temp;Humidity;BMP_temperature;BMP_pressure;BME280_temperature;BME280_humidity;BME280_pressure;Samples;Min_cycle;Max_cycle;Signal;HPM_P1;HPM_P2
2023/08/03 00:00:13;;;;;;;5.37;4.33;;;;;;;;;;4991480;28;20551;-55
2023/08/03 00:02:41;;;;;;;5.10;4.53;;;;;;;;;;4991688;28;20976;-55
2023/08/03 00:05:08;;;;;;;4.83;3.80;;;;;;;;;;4991626;28;20440;-55
2023/08/03 00:07:36;;;;;;;5.43;4.17;;;;;;;;;;4991800;28;20456;-55
2023/08/03 00:10:03;;;;;;;5.40;4.17;;;;;;;;;;4991367;28;20447;-55
2023/08/03 00:12:30;;;;;;;5.50;5.00;;;;;;;;;;4991481;28;21008;-56
2023/08/03 00:14:59;;;;;;;5.10;4.07;;;;;;;;;;4991651;28;20475;-56
2023/08/03 00:17:26;;;;;;;4.53;4.00;;;;;;;;;;4991655;28;20522;-56
2023/08/03 00:19:53;;;;;;;5.27;4.33;;;;;;;;;;4991478;28;20535;-55
2023/08/03 00:22:21;;;;;;;5.60;4.27;;;;;;;;;;4991712;28;20507;-55
2023/08/03 00:24:48;;;;;;;5.80;4.37;;;;;;;;;;4991236;28;20472;-55
2023/08/03 00:27:15;;;;;;;6.40;4.27;;;;;;;;;;4991578;28;20792;-55
2023/08/03 00:29:42;;;;;;;5.53;5.03;;;;;;;;;;4991467;28;20933;-54
2023/08/03 00:32:11;;;;;;;4.77;4.10;;;;;;;;;;4990848;28;20538;-55
2023/08/03 00:34:38;;;;;;;4.33;3.80;;;;;;;;;;4991250;28;20471;-55
2023/08/03 00:37:06;;;;;;;5.50;4.60;;;;;;;;;;4991630;28;20547;-55
2023/08/03 00:39:33;;;;;;;5.47;4.30;;;;;;;;;;4991276;28;20475;-55
2023/08/03 00:42:00;;;;;;;9.33;4.00;;;;;;;;;;4990689;28;20511;-55
2023/08/03 00:44:27;;;;;;;4.73;4.20;;;;;;;;;;4989809;28;20491;-56
2023/08/03 00:46:55;;;;;;;6.33;4.80;;;;;;;;;;4989778;28;20543;-56
2023/08/03 00:49:27;;;;;;;5.00;3.93;;;;;;;;;;4989586;28;20906;-55
2023/08/03 00:51:54;;;;;;;4.47;4.00;;;;;;;;;;4989790;28;20460;-55
2023/08/03 00:54:22;;;;;;;4.70;4.17;;;;;;;;;;4989823;28;20527;-55
2023/08/03 00:56:49;;;;;;;5.97;4.33;;;;;;;;;;4989352;28;21006;-55
2023/08/03 00:59:16;;;;;;;6.33;3.80;;;;;;;;;;4990815;28;20530;-55
2023/08/03 01:01:43;;;;;;;4.40;4.00;;;;;;;;;;4990936;28;20511;-54
2023/08/03 01:04:11;;;;;;;5.83;4.10;;;;;;;;;;4991499;28;20444;-56
2023/08/03 01:06:40;;;;;;;4.10;3.50;;;;;;;;;;4991397;28;20487;-54
2023/08/03 01:09:07;;;;;;;6.93;4.50;;;;;;;;;;4991028;28;20522;-55
2023/08/03 01:11:35;;;;;;;3.70;3.33;;;;;;;;;;4990778;28;21013;-55
2023/08/03 01:14:02;;;;;;;4.70;3.67;;;;;;;;;;4991303;28;20507;-55
2023/08/03 01:16:30;;;;;;;3.93;3.60;;;;;;;;;;4991098;28;20474;-56
2023/08/03 01:18:57;;;;;;;5.13;3.80;;;;;;;;;;4991044;28;20519;-55
2023/08/03 01:21:25;;;;;;;4.13;3.73;;;;;;;;;;4990522;28;20574;-56
2023/08/03 01:23:54;;;;;;;6.47;4.00;;;;;;;;;;4991310;28;20511;-55
2023/08/03 01:26:21;;;;;;;5.93;3.70;;;;;;;;;;4990778;28;20866;-55
2023/08/03 01:28:49;;;;;;;4.60;3.70;;;;;;;;;;4990745;28;20539;-55
2023/08/03 01:31:17;;;;;;;5.67;3.50;;;;;;;;;;4989733;28;20528;-55
2023/08/03 01:33:44;;;;;;;4.90;4.30;;;;;;;;;;4989702;28;20459;-56
2023/08/03 01:36:11;;;;;;;5.53;4.13;;;;;;;;;;4990553;28;20533;-57
2023/08/03 01:38:38;;;;;;;5.93;4.40;;;;;;;;;;4993385;28;20531;-55
2023/08/03 01:41:07;;;;;;;5.27;4.27;;;;;;;;;;4993422;28;20654;-55
2023/08/03 01:43:34;;;;;;;4.70;3.97;;;;;;;;;;4993353;28;20551;-56
2023/08/03 01:46:01;;;;;;;5.77;4.27;;;;;;;;;;4993434;28;20545;-55
2023/08/03 01:48:29;;;;;;;8.90;4.40;;;;;;;;;;4993390;28;20448;-56
2023/08/03 01:50:56;;;;;;;4.13;3.50;;;;;;;;;;4992926;28;20506;-55
2023/08/03 01:53:23;;;;;;;3.40;2.63;;;;;;;;;;4992780;28;20514;-56
2023/08/03 01:55:50;;;;;;;3.90;2.93;;;;;;;;;;4993101;28;20527;-55
2023/08/03 01:58:20;;;;;;;3.57;2.87;;;;;;;;;;4992937;28;21019;-55
2023/08/03 02:00:47;;;;;;;3.70;2.90;;;;;;;;;;4992287;28;20562;-55
2023/08/03 02:03:14;;;;;;;5.57;3.20;;;;;;;;;;4991423;28;20551;-55
2023/08/03 02:05:41;;;;;;;3.03;2.53;;;;;;;;;;4991412;28;20444;-55
2023/08/03 02:08:08;;;;;;;4.77;2.80;;;;;;;;;;4991655;28;20472;-54
2023/08/03 02:10:36;;;;;;;2.93;2.53;;;;;;;;;;4991178;28;20475;-55
2023/08/03 02:13:03;;;;;;;3.53;2.90;;;;;;;;;;5046301;23;20483;-84
2023/08/03 02:15:31;;;;;;;4.03;2.43;;;;;;;;;;5015836;28;20447;-84
2023/08/03 02:17:59;;;;;;;2.83;1.80;;;;;;;;;;5016425;28;20435;-84
2023/08/03 02:20:26;;;;;;;4.10;2.50;;;;;;;;;;5016280;28;20435;-85
2023/08/03 02:22:53;;;;;;;2.73;1.80;;;;;;;;;;5015230;28;20479;-84
2023/08/03 02:25:23;;;;;;;3.10;2.17;;;;;;;;;;5014762;28;20483;-84
2023/08/03 02:27:51;;;;;;;2.73;1.90;;;;;;;;;;5026663;23;20852;-58
2023/08/03 02:30:18;;;;;;;2.87;1.90;;;;;;;;;;5010442;28;20435;-59
2023/08/03 02:32:47;;;;;;;2.40;1.63;;;;;;;;;;5010479;28;20534;-58
2023/08/03 02:35:14;;;;;;;2.83;1.83;;;;;;;;;;5010457;28;21006;-57
2023/08/03 02:37:41;;;;;;;2.93;1.67;;;;;;;;;;5011089;28;20800;-58
2023/08/03 02:40:09;;;;;;;2.27;1.37;;;;;;;;;;5011578;28;20522;-58
2023/08/03 02:42:37;;;;;;;2.73;1.60;;;;;;;;;;5011993;28;20487;-58
2023/08/03 02:45:04;;;;;;;2.00;1.23;;;;;;;;;;5011977;28;20439;-58
2023/08/03 02:47:31;;;;;;;2.90;1.33;;;;;;;;;;5011524;28;20531;-58
2023/08/03 02:50:00;;;;;;;2.80;1.40;;;;;;;;;;5011063;28;20479;-58
2023/08/03 02:52:27;;;;;;;2.00;1.20;;;;;;;;;;5011565;28;20538;-58
2023/08/03 02:54:55;;;;;;;3.00;1.17;;;;;;;;;;5011698;28;20478;-56
2023/08/03 02:57:22;;;;;;;1.90;1.23;;;;;;;;;;5011445;28;20865;-58
2023/08/03 02:59:49;;;;;;;2.37;1.30;;;;;;;;;;5011490;28;20529;-57
2023/08/03 03:02:16;;;;;;;2.40;1.40;;;;;;;;;;5011159;28;20565;-57
2023/08/03 03:04:43;;;;;;;5.03;1.70;;;;;;;;;;5010838;28;20521;-58
2023/08/03 03:07:12;;;;;;;2.30;1.60;;;;;;;;;;5011190;28;20478;-57
2023/08/03 03:09:39;;;;;;;3.80;1.73;;;;;;;;;;5011251;28;20481;-56
2023/08/03 03:12:07;;;;;;;2.50;1.50;;;;;;;;;;5011082;28;20534;-58
2023/08/03 03:14:35;;;;;;;2.73;1.57;;;;;;;;;;5001236;28;20479;-58
2023/08/03 03:17:02;;;;;;;2.40;1.53;;;;;;;;;;4995687;28;20519;-58
2023/08/03 03:19:29;;;;;;;3.00;1.73;;;;;;;;;;4993770;28;20440;-58
2023/08/03 03:21:57;;;;;;;2.90;1.93;;;;;;;;;;5010637;28;20569;-58
2023/08/03 03:24:26;;;;;;;2.00;1.20;;;;;;;;;;5010667;28;20867;-59
2023/08/03 03:26:54;;;;;;;2.60;1.50;;;;;;;;;;5010640;28;20557;-58
2023/08/03 03:29:21;;;;;;;2.30;1.30;;;;;;;;;;5009504;28;20505;-58
2023/08/03 03:31:48;;;;;;;2.40;1.50;;;;;;;;;;4990991;28;20490;-56
2023/08/03 03:34:15;;;;;;;5.60;1.70;;;;;;;;;;4991534;28;20534;-57
2023/08/03 03:36:43;;;;;;;2.70;1.60;;;;;;;;;;4991225;28;20936;-56
2023/08/03 03:39:10;;;;;;;3.10;1.70;;;;;;;;;;4994484;28;20831;-58
2023/08/03 03:41:39;;;;;;;3.40;1.73;;;;;;;;;;5010258;28;20475;-58
2023/08/03 03:44:06;;;;;;;2.70;1.50;;;;;;;;;;5010713;28;20451;-58
2023/08/03 03:46:33;;;;;;;3.10;1.80;;;;;;;;;;5010697;28;20471;-56
2023/08/03 03:49:00;;;;;;;2.20;1.20;;;;;;;;;;5010482;28;20876;-57
2023/08/03 03:51:27;;;;;;;1.97;1.00;;;;;;;;;;5010319;28;20439;-57
2023/08/03 03:53:55;;;;;;;2.10;1.23;;;;;;;;;;5010260;28;20463;-55
2023/08/03 03:56:22;;;;;;;1.97;1.00;;;;;;;;;;5010456;28;20443;-55
2023/08/03 03:58:50;;;;;;;2.97;1.40;;;;;;;;;;5010916;28;20531;-56
2023/08/03 04:01:18;;;;;;;2.57;1.60;;;;;;;;;;5010191;28;20530;-57
2023/08/03 04:03:45;;;;;;;2.77;1.50;;;;;;;;;;5011245;28;20455;-55
2023/08/03 04:06:12;;;;;;;2.43;1.50;;;;;;;;;;5011380;28;20443;-56
2023/08/03 04:08:39;;;;;;;2.63;1.47;;;;;;;;;;4992267;28;20507;-56
2023/08/03 04:11:07;;;;;;;3.33;1.40;;;;;;;;;;4991163;28;20962;-57
2023/08/03 04:13:35;;;;;;;2.87;1.10;;;;;;;;;;4991958;28;20480;-57
2023/08/03 04:16:03;;;;;;;1.90;1.13;;;;;;;;;;4991735;28;20812;-56
2023/08/03 04:18:31;;;;;;;2.13;1.50;;;;;;;;;;4991849;28;20436;-57
2023/08/03 04:20:58;;;;;;;2.33;1.50;;;;;;;;;;4991175;28;20440;-56
2023/08/03 04:23:25;;;;;;;2.20;1.00;;;;;;;;;;4990869;28;20515;-56
2023/08/03 04:25:52;;;;;;;1.90;0.90;;;;;;;;;;4991692;28;20468;-56
2023/08/03 04:28:19;;;;;;;2.60;0.80;;;;;;;;;;4991415;28;20979;-55
2023/08/03 04:30:47;;;;;;;2.27;1.07;;;;;;;;;;4990730;28;20499;-57
2023/08/03 04:33:15;;;;;;;2.50;1.30;;;;;;;;;;4991088;28;20483;-56
2023/08/03 04:35:42;;;;;;;1.77;1.00;;;;;;;;;;4991592;28;20444;-56
2023/08/03 04:38:10;;;;;;;2.30;1.20;;;;;;;;;;4991412;28;20448;-55
2023/08/03 04:40:37;;;;;;;2.30;1.40;;;;;;;;;;4990755;28;21000;-56
2023/08/03 04:43:04;;;;;;;2.83;1.30;;;;;;;;;;4991215;28;20566;-57
2023/08/03 04:45:31;;;;;;;2.00;1.10;;;;;;;;;;4991054;28;20450;-55
2023/08/03 04:47:59;;;;;;;3.33;1.30;;;;;;;;;;4991268;28;20527;-56
2023/08/03 04:50:27;;;;;;;2.77;1.40;;;;;;;;;;4993570;28;20514;-57
2023/08/03 04:52:55;;;;;;;2.43;1.33;;;;;;;;;;5010788;28;20486;-56
2023/08/03 04:55:22;;;;;;;3.00;1.60;;;;;;;;;;5010888;28;20816;-56
2023/08/03 04:57:49;;;;;;;2.23;1.13;;;;;;;;;;5010427;28;20532;-57
2023/08/03 05:00:16;;;;;;;1.87;1.03;;;;;;;;;;5008379;28;20439;-56
2023/08/03 05:02:44;;;;;;;2.23;1.07;;;;;;;;;;4995915;28;20690;-56
2023/08/03 05:05:11;;;;;;;2.93;1.67;;;;;;;;;;4991177;28;20460;-56
2023/08/03 05:07:39;;;;;;;2.07;1.30;;;;;;;;;;4994045;28;20440;-57
2023/08/03 05:10:07;;;;;;;4.13;1.30;;;;;;;;;;4998687;28;20544;-57
2023/08/03 05:12:34;;;;;;;2.37;1.43;;;;;;;;;;5007510;28;20454;-57
2023/08/03 05:15:01;;;;;;;2.10;1.20;;;;;;;;;;5014353;28;21017;-57
2023/08/03 05:17:29;;;;;;;2.27;1.50;;;;;;;;;;5002798;28;20470;-58
2023/08/03 05:19:56;;;;;;;3.13;1.77;;;;;;;;;;5004733;28;20500;-56
2023/08/03 05:22:23;;;;;;;2.33;1.43;;;;;;;;;;5001432;28;20857;-56
2023/08/03 05:24:52;;;;;;;2.27;1.23;;;;;;;;;;5002572;28;20518;-57
2023/08/03 05:27:19;;;;;;;2.50;1.37;;;;;;;;;;5002969;28;20527;-55
2023/08/03 05:29:46;;;;;;;2.20;1.30;;;;;;;;;;5003771;28;20466;-55
2023/08/03 05:32:13;;;;;;;2.63;1.50;;;;;;;;;;5007668;28;20900;-55
2023/08/03 05:34:41;;;;;;;2.83;1.57;;;;;;;;;;5014081;28;20530;-57
2023/08/03 05:37:08;;;;;;;2.13;1.37;;;;;;;;;;5013978;28;20462;-57
2023/08/03 05:39:35;;;;;;;2.20;1.23;;;;;;;;;;5013807;28;20518;-57
2023/08/03 05:42:05;;;;;;;2.53;1.50;;;;;;;;;;5014022;28;20479;-57
2023/08/03 05:44:32;;;;;;;2.60;1.40;;;;;;;;;;5014081;28;20434;-56
2023/08/03 05:46:59;;;;;;;3.10;1.50;;;;;;;;;;5008257;28;20475;-57
2023/08/03 05:49:26;;;;;;;2.10;1.30;;;;;;;;;;5013844;28;20470;-57
2023/08/03 05:51:54;;;;;;;3.40;2.10;;;;;;;;;;5013012;28;20482;-56
2023/08/03 05:54:21;;;;;;;2.00;1.20;;;;;;;;;;5007917;28;20466;-57
2023/08/03 05:56:48;;;;;;;3.27;1.80;;;;;;;;;;5013851;28;20463;-58
2023/08/03 05:59:19;;;;;;;3.27;1.17;;;;;;;;;;5012808;28;20693;-58
2023/08/03 06:01:47;;;;;;;3.40;1.57;;;;;;;;;;5013105;28;20453;-57
2023/08/03 06:04:16;;;;;;;2.37;1.40;;;;;;;;;;5013646;28;20435;-57
2023/08/03 06:06:43;;;;;;;3.50;1.40;;;;;;;;;;4993654;28;20523;-57
2023/08/03 06:09:12;;;;;;;2.30;1.80;;;;;;;;;;4993458;28;20444;-57
2023/08/03 06:11:39;;;;;;;3.10;1.60;;;;;;;;;;4993053;28;20443;-57
2023/08/03 06:14:06;;;;;;;2.87;1.60;;;;;;;;;;4993709;28;20976;-58
2023/08/03 06:16:36;;;;;;;2.60;2.13;;;;;;;;;;4993561;28;20947;-56
2023/08/03 06:19:03;;;;;;;3.40;1.47;;;;;;;;;;4993386;28;20467;-57
2023/08/03 06:21:30;;;;;;;3.80;1.50;;;;;;;;;;5001676;28;20447;-56
2023/08/03 06:23:58;;;;;;;2.40;1.60;;;;;;;;;;5011141;28;20570;-57
2023/08/03 06:26:26;;;;;;;5.37;1.80;;;;;;;;;;5011759;28;20470;-55
2023/08/03 06:28:54;;;;;;;3.37;1.57;;;;;;;;;;5011546;28;20482;-57
2023/08/03 06:31:24;;;;;;;3.40;1.80;;;;;;;;;;4998177;28;20440;-57
2023/08/03 06:33:52;;;;;;;2.60;1.50;;;;;;;;;;5011430;28;20847;-57
2023/08/03 06:36:20;;;;;;;2.30;1.40;;;;;;;;;;5008823;28;20873;-57
2023/08/03 06:38:48;;;;;;;1.90;1.10;;;;;;;;;;5010341;28;20527;-55
2023/08/03 06:41:15;;;;;;;2.13;1.20;;;;;;;;;;5012558;28;20447;-55
2023/08/03 06:43:44;;;;;;;2.27;1.17;;;;;;;;;;5012748;28;20569;-55
2023/08/03 06:46:11;;;;;;;2.73;1.07;;;;;;;;;;5002377;28;20456;-56
2023/08/03 06:48:38;;;;;;;2.60;1.33;;;;;;;;;;5005387;28;20525;-57
2023/08/03 06:51:07;;;;;;;2.90;1.20;;;;;;;;;;5010081;28;20497;-55
2023/08/03 06:53:34;;;;;;;1.80;0.90;;;;;;;;;;4991494;28;21039;-56
2023/08/03 06:56:03;;;;;;;2.00;1.30;;;;;;;;;;5001559;28;20523;-55
2023/08/03 06:58:30;;;;;;;2.50;1.10;;;;;;;;;;5000648;28;20483;-57
2023/08/03 07:00:57;;;;;;;2.77;1.60;;;;;;;;;;5000619;28;20864;-57
2023/08/03 07:03:25;;;;;;;2.43;1.03;;;;;;;;;;4992345;28;21076;-57
2023/08/03 07:05:52;;;;;;;1.80;1.10;;;;;;;;;;5000499;28;20476;-57
2023/08/03 07:08:21;;;;;;;2.93;1.33;;;;;;;;;;4992361;28;20527;-51
2023/08/03 07:10:48;;;;;;;2.40;1.27;;;;;;;;;;4992473;28;20873;-54
2023/08/03 07:13:15;;;;;;;2.10;1.10;;;;;;;;;;4992583;28;20535;-55
2023/08/03 07:15:43;;;;;;;12.53;8.93;;;;;;;;;;4992766;28;20452;-52
2023/08/03 07:18:10;;;;;;;4.40;1.37;;;;;;;;;;4992644;28;20475;-51
2023/08/03 07:20:37;;;;;;;2.30;1.30;;;;;;;;;;4997241;28;20454;-56
2023/08/03 07:23:07;;;;;;;2.23;1.27;;;;;;;;;;5004300;28;20529;-54
2023/08/03 07:25:35;;;;;;;1.90;1.00;;;;;;;;;;5010239;28;20882;-53
2023/08/03 07:28:03;;;;;;;2.57;1.70;;;;;;;;;;5010264;28;20552;-56
2023/08/03 07:30:30;;;;;;;2.57;1.20;;;;;;;;;;5010121;28;20797;-57
2023/08/03 07:32:57;;;;;;;3.03;1.83;;;;;;;;;;5009131;28;20542;-57
2023/08/03 07:35:25;;;;;;;2.30;1.80;;;;;;;;;;5010285;28;20521;-57
2023/08/03 07:37:52;;;;;;;2.33;1.70;;;;;;;;;;5011172;28;20543;-58
2023/08/03 07:40:19;;;;;;;2.33;1.40;;;;;;;;;;5011488;28;20451;-56
2023/08/03 07:42:48;;;;;;;2.20;1.20;;;;;;;;;;5011293;28;20570;-56
2023/08/03 07:45:15;;;;;;;2.87;1.40;;;;;;;;;;5011719;28;20435;-55
2023/08/03 07:47:42;;;;;;;2.33;1.13;;;;;;;;;;5011532;28;20443;-57
2023/08/03 07:50:10;;;;;;;2.37;1.60;;;;;;;;;;5011246;28;20442;-55
2023/08/03 07:52:39;;;;;;;2.40;1.30;;;;;;;;;;5011455;28;20474;-57
2023/08/03 07:55:06;;;;;;;3.00;1.73;;;;;;;;;;5011409;28;21002;-56
2023/08/03 07:57:34;;;;;;;2.70;1.40;;;;;;;;;;5011381;28;20531;-57
2023/08/03 08:00:03;;;;;;;2.70;1.60;;;;;;;;;;5011091;28;20451;-56
2023/08/03 08:02:31;;;;;;;2.70;1.37;;;;;;;;;;5009822;28;20463;-56
2023/08/03 08:04:58;;;;;;;2.53;1.30;;;;;;;;;;5009816;28;20486;-56
2023/08/03 08:07:25;;;;;;;3.50;1.37;;;;;;;;;;5009861;28;20599;-56
2023/08/03 08:09:54;;;;;;;4.67;1.70;;;;;;;;;;5009088;28;20523;-57
2023/08/03 08:12:21;;;;;;;3.23;1.30;;;;;;;;;;5029326;23;20564;-90
2023/08/03 08:14:49;;;;;;;3.10;1.40;;;;;;;;;;5015487;28;20481;-87
2023/08/03 08:17:17;;;;;;;2.20;1.33;;;;;;;;;;5014959;28;20587;-87
2023/08/03 08:19:45;;;;;;;2.00;1.23;;;;;;;;;;5014146;28;20521;-87
2023/08/03 08:22:12;;;;;;;2.70;1.37;;;;;;;;;;5025989;28;20443;-86
2023/08/03 08:24:39;;;;;;;3.70;1.63;;;;;;;;;;5014395;28;20537;-86
2023/08/03 08:27:07;;;;;;;3.30;1.67;;;;;;;;;;5011229;23;21075;-55
2023/08/03 08:29:34;;;;;;;2.10;1.13;;;;;;;;;;4991250;28;20944;-55
2023/08/03 08:32:01;;;;;;;2.40;1.30;;;;;;;;;;4991314;28;20861;-54
2023/08/03 08:34:30;;;;;;;3.10;1.70;;;;;;;;;;4991320;28;20490;-55
2023/08/03 08:36:57;;;;;;;2.30;1.30;;;;;;;;;;4991001;28;20436;-56
2023/08/03 08:39:24;;;;;;;3.30;1.57;;;;;;;;;;4991259;28;20479;-55
2023/08/03 08:41:52;;;;;;;6.80;1.90;;;;;;;;;;4991456;28;20479;-56
2023/08/03 08:44:19;;;;;;;3.30;1.80;;;;;;;;;;4991410;28;20574;-55
2023/08/03 08:46:46;;;;;;;3.10;1.90;;;;;;;;;;4990691;28;21003;-53
2023/08/03 08:49:14;;;;;;;3.50;1.40;;;;;;;;;;4991054;28;20937;-53
2023/08/03 08:51:43;;;;;;;2.20;1.20;;;;;;;;;;4991283;28;20440;-53
2023/08/03 08:54:10;;;;;;;2.43;1.30;;;;;;;;;;4991123;28;21043;-53
2023/08/03 08:56:37;;;;;;;2.30;1.47;;;;;;;;;;4991557;28;20487;-54
2023/08/03 08:59:04;;;;;;;2.50;1.30;;;;;;;;;;4991207;28;20991;-53
2023/08/03 09:01:47;;;;;;;3.07;1.40;;;;;;;;;;4991151;28;20498;-54
2023/08/03 09:04:14;;;;;;;3.13;1.80;;;;;;;;;;4990907;28;20567;-54
2023/08/03 09:06:45;;;;;;;2.97;1.53;;;;;;;;;;4991315;28;20860;-53
2023/08/03 09:09:12;;;;;;;2.97;1.70;;;;;;;;;;4990591;28;20955;-53
2023/08/03 09:11:40;;;;;;;2.33;1.40;;;;;;;;;;4990921;28;20992;-53
2023/08/03 09:14:07;;;;;;;2.60;1.80;;;;;;;;;;4990932;28;20603;-53
2023/08/03 09:16:35;;;;;;;3.00;1.43;;;;;;;;;;4991209;28;20535;-54
2023/08/03 09:19:02;;;;;;;2.50;1.53;;;;;;;;;;4991304;28;20527;-54
2023/08/03 09:21:29;;;;;;;2.43;1.37;;;;;;;;;;4990936;28;20499;-53
2023/08/03 09:23:59;;;;;;;2.60;1.53;;;;;;;;;;4990703;28;20992;-54
2023/08/03 09:26:27;;;;;;;3.10;2.10;;;;;;;;;;4991109;28;20828;-53
2023/08/03 09:28:54;;;;;;;2.97;1.50;;;;;;;;;;4990635;28;20443;-52
2023/08/03 09:31:23;;;;;;;3.57;1.40;;;;;;;;;;4990769;28;20479;-54
2023/08/03 09:33:55;;;;;;;3.67;1.30;;;;;;;;;;4990950;28;20470;-53
2023/08/03 09:36:23;;;;;;;2.73;1.60;;;;;;;;;;4990738;28;20535;-53
2023/08/03 09:38:51;;;;;;;3.03;1.40;;;;;;;;;;4990973;28;20536;-55
2023/08/03 09:41:33;;;;;;;2.67;1.50;;;;;;;;;;4990746;28;20959;-56
2023/08/03 09:44:00;;;;;;;2.93;1.57;;;;;;;;;;4991067;28;20578;-55
2023/08/03 09:46:29;;;;;;;5.10;1.80;;;;;;;;;;4991013;28;20806;-54
2023/08/03 09:48:57;;;;;;;2.73;1.40;;;;;;;;;;4990902;28;21007;-55
2023/08/03 09:51:26;;;;;;;2.83;1.40;;;;;;;;;;4978597;28;20527;-56
2023/08/03 09:53:56;;;;;;;1.90;1.07;;;;;;;;;;4980752;28;20456;-55
2023/08/03 09:56:25;;;;;;;3.60;1.20;;;;;;;;;;4980953;28;20995;-56
2023/08/03 09:58:58;;;;;;;2.77;1.47;;;;;;;;;;4973001;28;20226;-53
2023/08/03 10:01:26;;;;;;;2.77;1.30;;;;;;;;;;4972292;28;20472;-53
2023/08/03 10:03:55;;;;;;;2.93;1.40;;;;;;;;;;4972893;28;20484;-52
2023/08/03 10:06:25;;;;;;;3.97;1.53;;;;;;;;;;4974133;28;20531;-55
2023/08/03 10:08:57;;;;;;;2.43;1.27;;;;;;;;;;4973889;28;20445;-53
2023/08/03 10:11:26;;;;;;;3.13;1.23;;;;;;;;;;4974080;28;20536;-53
2023/08/03 10:13:56;;;;;;;2.60;1.00;;;;;;;;;;4973732;28;20521;-53
2023/08/03 10:16:24;;;;;;;4.03;1.10;;;;;;;;;;4974358;28;20899;-53
2023/08/03 10:18:52;;;;;;;2.33;1.27;;;;;;;;;;4973209;28;20481;-53
2023/08/03 10:21:19;;;;;;;2.90;1.60;;;;;;;;;;4972046;28;20484;-52
2023/08/03 10:24:01;;;;;;;3.03;1.20;;;;;;;;;;4972049;28;20571;-53
2023/08/03 10:26:28;;;;;;;3.43;1.30;;;;;;;;;;4971827;28;20449;-53
2023/08/03 10:28:57;;;;;;;3.40;1.60;;;;;;;;;;4972505;28;20520;-54
2023/08/03 10:31:24;;;;;;;2.67;1.53;;;;;;;;;;4972227;28;20516;-53
2023/08/03 10:34:15;;;;;;;3.20;1.47;;;;;;;;;;4972754;28;20453;-53
2023/08/03 10:36:46;;;;;;;6.60;1.53;;;;;;;;;;4973057;28;20508;-53
2023/08/03 10:39:16;;;;;;;3.33;1.90;;;;;;;;;;4984146;28;20539;-53
2023/08/03 10:41:44;;;;;;;2.77;1.40;;;;;;;;;;4982464;28;20468;-53
2023/08/03 10:44:28;;;;;;;2.80;1.37;;;;;;;;;;4982298;28;20564;-53
2023/08/03 10:46:58;;;;;;;2.73;1.60;;;;;;;;;;4983002;28;20460;-53
2023/08/03 10:49:43;;;;;;;4.13;2.27;;;;;;;;;;4982340;28;20507;-53
2023/08/03 10:52:18;;;;;;;3.03;1.77;;;;;;;;;;4984107;28;20494;-54
2023/08/03 10:54:45;;;;;;;4.90;1.83;;;;;;;;;;4980694;28;20507;-55
2023/08/03 10:57:13;;;;;;;5.77;1.43;;;;;;;;;;4973610;28;20476;-52
2023/08/03 10:59:43;;;;;;;5.77;1.60;;;;;;;;;;4973548;28;20544;-52
2023/08/03 11:02:11;;;;;;;3.43;1.93;;;;;;;;;;4973456;28;20445;-52
2023/08/03 11:04:39;;;;;;;4.27;1.57;;;;;;;;;;4973497;28;20579;-52
2023/08/03 11:07:08;;;;;;;2.53;1.27;;;;;;;;;;4972887;28;20445;-53
2023/08/03 11:09:35;;;;;;;2.57;1.30;;;;;;;;;;4971560;28;20480;-53
2023/08/03 11:12:04;;;;;;;3.70;1.50;;;;;;;;;;4971543;28;20449;-52
2023/08/03 11:14:31;;;;;;;3.27;1.80;;;;;;;;;;4980755;28;20444;-53
2023/08/03 11:16:59;;;;;;;3.13;2.07;;;;;;;;;;4971837;28;20532;-52
2023/08/03 11:19:32;;;;;;;2.40;1.53;;;;;;;;;;4981355;28;20534;-54
2023/08/03 11:21:59;;;;;;;3.23;1.67;;;;;;;;;;4977766;28;20449;-54
2023/08/03 11:24:30;;;;;;;2.10;1.13;;;;;;;;;;4975455;28;20567;-55
2023/08/03 11:26:57;;;;;;;4.23;1.47;;;;;;;;;;4972893;28;20448;-55
2023/08/03 11:29:25;;;;;;;5.80;1.50;;;;;;;;;;4971366;28;21031;-52
2023/08/03 11:31:52;;;;;;;4.63;1.50;;;;;;;;;;4971324;28;20500;-52
2023/08/03 11:34:23;;;;;;;2.70;1.60;;;;;;;;;;4972017;28;20553;-52
2023/08/03 11:36:51;;;;;;;3.90;1.87;;;;;;;;;;4970271;28;20456;-52
2023/08/03 11:39:18;;;;;;;3.10;1.90;;;;;;;;;;4976022;28;20470;-52
2023/08/03 11:41:46;;;;;;;2.20;1.23;;;;;;;;;;4988926;28;20444;-52
2023/08/03 11:44:13;;;;;;;4.07;1.63;;;;;;;;;;4985221;28;21082;-51
2023/08/03 11:46:40;;;;;;;2.60;1.73;;;;;;;;;;4988986;28;20441;-53
2023/08/03 11:49:13;;;;;;;5.40;1.90;;;;;;;;;;4977408;28;20983;-53
2023/08/03 11:51:42;;;;;;;2.97;1.57;;;;;;;;;;4982193;28;20440;-52
2023/08/03 11:54:10;;;;;;;4.13;1.53;;;;;;;;;;4979981;28;20460;-53
2023/08/03 11:56:38;;;;;;;2.70;1.40;;;;;;;;;;4979429;28;20461;-53
2023/08/03 11:59:07;;;;;;;4.17;1.87;;;;;;;;;;4976995;28;20440;-54
2023/08/03 12:01:34;;;;;;;3.37;1.47;;;;;;;;;;4979888;28;20892;-52
2023/08/03 12:04:05;;;;;;;2.63;1.57;;;;;;;;;;4988960;28;20506;-52
2023/08/03 12:06:44;;;;;;;2.90;1.90;;;;;;;;;;4989147;28;20440;-52
2023/08/03 12:09:11;;;;;;;3.33;1.67;;;;;;;;;;4972747;28;20477;-52
2023/08/03 12:11:39;;;;;;;3.60;1.73;;;;;;;;;;4976671;28;20527;-53
2023/08/03 12:14:06;;;;;;;5.40;1.93;;;;;;;;;;4984509;28;20457;-52
2023/08/03 12:16:33;;;;;;;3.03;1.57;;;;;;;;;;4989276;28;20476;-53
2023/08/03 12:19:02;;;;;;;3.20;1.73;;;;;;;;;;4977145;28;20854;-53
2023/08/03 12:21:29;;;;;;;3.13;1.50;;;;;;;;;;4977098;28;20443;-53
2023/08/03 12:23:58;;;;;;;2.87;1.80;;;;;;;;;;4972813;28;21042;-54
2023/08/03 12:26:25;;;;;;;2.20;1.43;;;;;;;;;;4980341;28;20472;-54
2023/08/03 12:28:52;;;;;;;5.33;2.17;;;;;;;;;;4978623;28;20879;-54
2023/08/03 12:31:19;;;;;;;2.70;1.53;;;;;;;;;;4975145;28;20586;-54
2023/08/03 12:33:46;;;;;;;3.50;2.00;;;;;;;;;;4974476;28;20535;-53
2023/08/03 12:36:15;;;;;;;3.70;2.00;;;;;;;;;;4974021;28;20909;-54
2023/08/03 12:38:42;;;;;;;6.60;1.73;;;;;;;;;;4971968;28;20556;-53
2023/08/03 12:41:10;;;;;;;4.43;1.80;;;;;;;;;;4974634;28;20441;-54
2023/08/03 12:43:38;;;;;;;3.30;1.90;;;;;;;;;;4967430;28;20497;-53
2023/08/03 12:46:05;;;;;;;2.80;1.63;;;;;;;;;;4976510;28;20483;-54
2023/08/03 12:48:32;;;;;;;3.87;1.83;;;;;;;;;;4972978;28;20480;-54
2023/08/03 12:51:00;;;;;;;3.60;1.63;;;;;;;;;;4976328;28;20452;-54
2023/08/03 12:53:27;;;;;;;3.63;1.50;;;;;;;;;;4979365;28;20472;-53
2023/08/03 12:55:54;;;;;;;3.50;1.90;;;;;;;;;;4970455;28;20437;-54
2023/08/03 12:58:23;;;;;;;3.70;1.70;;;;;;;;;;4975384;28;20595;-53
2023/08/03 13:00:50;;;;;;;3.60;1.97;;;;;;;;;;4980009;28;20524;-54
2023/08/03 13:03:18;;;;;;;4.60;2.40;;;;;;;;;;4972807;28;20492;-54
2023/08/03 13:05:45;;;;;;;3.00;1.70;;;;;;;;;;4972280;28;20484;-52
2023/08/03 13:08:12;;;;;;;3.20;2.10;;;;;;;;;;4969412;28;20484;-53
2023/08/03 13:10:40;;;;;;;3.70;2.30;;;;;;;;;;4971834;28;20444;-53
2023/08/03 13:13:07;;;;;;;4.00;1.57;;;;;;;;;;4975090;28;20461;-51
2023/08/03 13:15:35;;;;;;;4.50;2.10;;;;;;;;;;4970690;28;20543;-53
2023/08/03 13:18:03;;;;;;;2.83;1.60;;;;;;;;;;4969663;28;20444;-52
2023/08/03 13:20:30;;;;;;;3.73;1.60;;;;;;;;;;4977017;28;21032;-53
2023/08/03 13:22:58;;;;;;;6.17;1.60;;;;;;;;;;4970910;28;20457;-54
2023/08/03 13:25:26;;;;;;;3.13;1.80;;;;;;;;;;4968417;28;21023;-54
2023/08/03 13:27:54;;;;;;;4.20;1.90;;;;;;;;;;4977600;28;20486;-53
2023/08/03 13:30:21;;;;;;;5.00;1.83;;;;;;;;;;4973041;28;20463;-53
2023/08/03 13:32:50;;;;;;;2.80;1.53;;;;;;;;;;4971020;28;20511;-52
2023/08/03 13:35:17;;;;;;;3.27;1.90;;;;;;;;;;4975629;28;20527;-52
2023/08/03 13:37:44;;;;;;;3.77;1.37;;;;;;;;;;4980786;28;20535;-53
2023/08/03 13:40:12;;;;;;;4.27;2.10;;;;;;;;;;4972452;28;20523;-52
2023/08/03 13:42:39;;;;;;;5.70;2.93;;;;;;;;;;4975687;28;20484;-52
2023/08/03 13:45:07;;;;;;;2.60;1.73;;;;;;;;;;4978543;28;20569;-52
2023/08/03 13:47:34;;;;;;;4.17;2.10;;;;;;;;;;4979881;28;20530;-53
2023/08/03 13:50:03;;;;;;;2.63;1.43;;;;;;;;;;4974347;28;20460;-53
2023/08/03 13:52:30;;;;;;;4.90;1.83;;;;;;;;;;4983049;28;20522;-52
2023/08/03 13:54:57;;;;;;;2.10;1.20;;;;;;;;;;4980446;28;20448;-53
2023/08/03 13:57:25;;;;;;;3.50;1.60;;;;;;;;;;4976394;28;20497;-53
2023/08/03 13:59:52;;;;;;;3.20;1.73;;;;;;;;;;4987080;28;20887;-53
2023/08/03 14:02:19;;;;;;;3.90;1.40;;;;;;;;;;4982217;28;20476;-53
2023/08/03 14:04:47;;;;;;;7.10;1.57;;;;;;;;;;4977139;28;20566;-52
2023/08/03 14:07:17;;;;;;;5.07;2.17;;;;;;;;;;4978177;28;20500;-53
2023/08/03 14:09:46;;;;;;;4.43;2.00;;;;;;;;;;4978933;28;20548;-53
2023/08/03 14:14:53;;;;;;;3.57;1.47;;;;;;;;;;4988235;28;20472;-57
2023/08/03 14:17:20;;;;;;;3.10;1.60;;;;;;;;;;4990205;28;20472;-58
2023/08/03 14:19:48;;;;;;;3.78;1.77;;;;;;;;;;4989751;28;20507;-57
2023/08/03 14:22:16;;;;;;;3.20;1.50;;;;;;;;;;4989433;28;20291;-58
2023/08/03 14:24:44;;;;;;;2.70;1.80;;;;;;;;;;4968087;28;20563;-57
2023/08/03 14:27:11;;;;;;;3.08;1.42;;;;;;;;;;4970927;28;20803;-56
2023/08/03 14:29:38;;;;;;;5.23;1.90;;;;;;;;;;4970507;28;20658;-57
2023/08/03 14:32:06;;;;;;;4.70;1.70;;;;;;;;;;4970941;28;20822;-57
2023/08/03 14:34:34;;;;;;;2.40;1.20;;;;;;;;;;4970669;28;21019;-55
2023/08/03 14:37:03;;;;;;;3.30;1.70;;;;;;;;;;4971146;28;20967;-57
2023/08/03 14:39:32;;;;;;;3.77;1.80;;;;;;;;;;4970505;28;20456;-57
2023/08/03 14:41:59;;;;;;;2.23;1.50;;;;;;;;;;4968145;28;20441;-57
2023/08/03 14:44:26;;;;;;;9.10;2.20;;;;;;;;;;4969522;28;20548;-57
2023/08/03 14:46:54;;;;;;;4.43;1.80;;;;;;;;;;4970490;28;21029;-57
2023/08/03 14:49:22;;;;;;;3.60;1.73;;;;;;;;;;4970190;28;20994;-57